createdAt,value
2022-10-31T00:01:32.927Z,56.55
2022-10-31T00:04:00.642Z,56.60
2022-10-31T00:06:28.844Z,56.73
2022-10-31T00:09:01.416Z,56.48
2022-10-31T00:11:29.902Z,56.46
2022-10-31T00:14:01.126Z,56.76
2022-10-31T00:16:30.043Z,56.53
2022-10-31T00:19:00.426Z,56.59
2022-10-31T00:21:28.607Z,56.73
2022-10-31T00:23:56.343Z,56.63
2022-10-31T00:26:24.255Z,56.81
2022-10-31T00:28:52.184Z,56.47
2022-10-31T00:31:19.945Z,56.47
2022-10-31T00:33:47.631Z,56.04
2022-10-31T00:36:20.226Z,56.33
2022-10-31T00:38:48.772Z,55.97
2022-10-31T00:41:18.052Z,56.26
2022-10-31T00:43:45.798Z,56.35
2022-10-31T00:46:14.582Z,55.94
2022-10-31T00:48:43.405Z,56.09
2022-10-31T00:51:11.606Z,55.88
2022-10-31T00:53:40.780Z,56.03
2022-10-31T00:56:08.563Z,56.04
2022-10-31T00:58:38.097Z,56.17
2022-10-31T01:01:06.041Z,55.62
2022-10-31T01:03:36.421Z,55.70
2022-10-31T01:06:08.437Z,55.97
2022-10-31T01:08:37.907Z,55.61
2022-10-31T01:11:15.033Z,55.83
2022-10-31T01:13:42.887Z,56.89
2022-10-31T01:16:14.326Z,56.58
2022-10-31T01:18:42.077Z,56.18
2022-10-31T01:21:21.419Z,55.70
2022-10-31T01:23:51.381Z,55.79
2022-10-31T01:26:31.813Z,55.61
2022-10-31T01:29:06.660Z,55.60
2022-10-31T01:31:38.735Z,55.32
2022-10-31T01:34:07.837Z,55.24
2022-10-31T01:36:38.784Z,55.54
2022-10-31T01:39:10.365Z,55.23
2022-10-31T01:41:41.138Z,55.51
2022-10-31T01:44:15.647Z,55.65
2022-10-31T01:46:48.090Z,55.43
2022-10-31T01:49:37.456Z,55.17
2022-10-31T01:52:10.954Z,55.15
2022-10-31T01:54:46.554Z,55.67
2022-10-31T01:57:16.404Z,55.68
2022-10-31T01:59:50.452Z,55.59
2022-10-31T02:02:20.020Z,55.35
2022-10-31T02:04:48.903Z,55.55
2022-10-31T02:07:28.620Z,55.56
2022-10-31T02:10:01.278Z,55.66
2022-10-31T02:12:31.784Z,55.33
2022-10-31T02:15:01.864Z,55.38
2022-10-31T02:17:31.708Z,55.20
2022-10-31T02:20:22.248Z,55.37
2022-10-31T02:23:32.967Z,55.41
2022-10-31T02:26:29.199Z,55.20
2022-10-31T02:29:16.732Z,55.30
2022-10-31T02:32:07.444Z,55.38
2022-10-31T02:34:47.228Z,55.24
2022-10-31T02:37:35.322Z,55.32
2022-10-31T02:40:16.120Z,55.29
2022-10-31T02:45:51.200Z,55.50
2022-10-31T02:48:28.315Z,55.32
2022-10-31T02:51:04.856Z,55.42
2022-10-31T02:53:37.376Z,55.81
2022-10-31T02:56:19.675Z,55.66
2022-10-31T02:58:58.668Z,54.98
2022-10-31T03:01:45.669Z,55.28
2022-10-31T03:04:13.386Z,55.23
2022-10-31T03:07:00.788Z,55.13
2022-10-31T03:09:55.059Z,55.09
2022-10-31T03:12:29.298Z,55.17
2022-10-31T03:15:20.791Z,54.93
2022-10-31T03:18:01.909Z,55.33
2022-10-31T03:20:43.049Z,55.28
2022-10-31T03:23:16.203Z,55.36
2022-10-31T03:25:48.928Z,55.30
2022-10-31T03:28:23.272Z,55.20
2022-10-31T03:30:53.459Z,55.14
2022-10-31T03:33:31.251Z,55.07
2022-10-31T03:36:04.088Z,55.28
2022-10-31T03:38:33.767Z,55.11
2022-10-31T03:41:05.964Z,55.16
2022-10-31T03:43:41.827Z,54.94
2022-10-31T03:46:10.138Z,55.47
2022-10-31T03:48:37.867Z,55.24
2022-10-31T03:51:17.704Z,54.95
2022-10-31T03:54:02.598Z,54.65
2022-10-31T03:56:38.602Z,54.94
2022-10-31T03:59:20.395Z,54.93
2022-10-31T04:01:53.122Z,54.80
2022-10-31T04:04:21.985Z,54.70
2022-10-31T04:06:52.538Z,55.16
2022-10-31T04:09:21.726Z,54.89
2022-10-31T04:11:54.232Z,54.64
2022-10-31T04:14:55.463Z,54.74
2022-10-31T04:17:28.801Z,55.10
2022-10-31T04:19:56.584Z,54.86
2022-10-31T04:22:24.466Z,54.65
2022-10-31T04:24:53.532Z,54.44
2022-10-31T04:27:21.150Z,54.58
2022-10-31T04:29:50.871Z,54.62
2022-10-31T04:32:19.476Z,54.50
2022-10-31T04:34:47.234Z,54.37
2022-10-31T04:37:15.026Z,54.64
2022-10-31T04:39:42.715Z,54.24
2022-10-31T04:42:31.880Z,54.18
2022-10-31T04:45:02.049Z,54.37
2022-10-31T04:47:35.402Z,54.33
2022-10-31T04:50:03.609Z,54.19
2022-10-31T04:52:31.798Z,54.26
2022-10-31T04:54:59.527Z,54.41
2022-10-31T04:57:50.880Z,54.28
2022-10-31T05:00:22.388Z,54.14
2022-10-31T05:02:54.134Z,54.18
2022-10-31T05:05:24.758Z,54.36
2022-10-31T05:07:52.892Z,54.42
2022-10-31T05:10:26.657Z,54.05
2022-10-31T05:13:01.496Z,54.18
2022-10-31T05:16:06.484Z,54.27
2022-10-31T05:19:06.790Z,54.56
2022-10-31T05:21:54.873Z,54.67
2022-10-31T05:24:22.843Z,54.28
2022-10-31T05:26:50.822Z,54.25
2022-10-31T05:29:18.869Z,54.55
2022-10-31T05:31:46.482Z,54.33
2022-10-31T05:34:33.859Z,54.79
2022-10-31T05:37:20.320Z,54.84
2022-10-31T05:39:48.442Z,54.82
2022-10-31T05:42:17.727Z,54.70
2022-10-31T05:44:45.391Z,54.50
2022-10-31T05:47:21.481Z,54.71
2022-10-31T05:50:25.409Z,54.75
2022-10-31T05:53:07.277Z,55.02
2022-10-31T05:55:40.546Z,55.40
2022-10-31T05:58:18.052Z,55.47
2022-10-31T06:00:52.290Z,55.21
2022-10-31T06:03:20.065Z,55.51
2022-10-31T06:05:55.381Z,54.91
2022-10-31T06:08:26.571Z,55.52
2022-10-31T06:10:55.903Z,55.42
2022-10-31T06:13:46.513Z,55.58
2022-10-31T06:16:20.377Z,55.10
2022-10-31T06:18:48.608Z,55.10
2022-10-31T06:21:18.945Z,55.33
2022-10-31T06:23:48.325Z,55.30
2022-10-31T06:26:51.268Z,55.21
2022-10-31T06:29:19.029Z,54.99
2022-10-31T06:32:02.877Z,54.98
2022-10-31T06:34:32.112Z,54.86
2022-10-31T06:37:00.337Z,54.90
2022-10-31T06:39:29.539Z,54.62
2022-10-31T06:41:57.348Z,54.65
2022-10-31T06:44:27.351Z,54.82
2022-10-31T06:47:01.205Z,54.54
2022-10-31T06:49:52.122Z,54.92
2022-10-31T06:52:24.480Z,54.86
2022-10-31T06:54:52.797Z,55.01
2022-10-31T06:57:22.097Z,55.15
2022-10-31T06:59:50.448Z,55.15
2022-10-31T07:02:38.430Z,55.07
2022-10-31T07:05:07.273Z,54.90
2022-10-31T07:07:34.864Z,55.40
2022-10-31T07:10:02.757Z,55.42
2022-10-31T07:12:45.525Z,55.40
2022-10-31T07:15:13.228Z,55.27
2022-10-31T07:17:40.985Z,55.24
2022-10-31T07:20:11.031Z,55.67
2022-10-31T07:22:38.981Z,55.31
2022-10-31T07:25:09.934Z,55.58
2022-10-31T07:27:42.976Z,54.90
2022-10-31T07:30:14.397Z,54.24
2022-10-31T07:32:49.313Z,54.75
2022-10-31T07:35:21.875Z,54.63
2022-10-31T07:37:58.470Z,54.88
2022-10-31T07:40:27.233Z,55.14
2022-10-31T07:42:55.288Z,55.16
2022-10-31T07:45:53.316Z,55.16
2022-10-31T07:48:39.694Z,54.73
2022-10-31T07:51:26.036Z,54.98
2022-10-31T07:54:06.215Z,54.83
2022-10-31T07:56:36.824Z,55.21
2022-10-31T07:59:04.662Z,55.41
2022-10-31T08:01:32.391Z,54.86
2022-10-31T08:04:32.177Z,54.71
2022-10-31T08:07:22.732Z,55.25
2022-10-31T08:09:57.446Z,54.92
2022-10-31T08:12:29.632Z,54.65
2022-10-31T08:14:57.377Z,54.52
2022-10-31T08:17:25.115Z,54.80
2022-10-31T08:19:57.485Z,54.52
2022-10-31T08:22:41.223Z,54.53
2022-10-31T08:25:11.735Z,54.72
2022-10-31T08:27:41.414Z,54.40
2022-10-31T08:30:17.034Z,54.55
2022-10-31T08:33:05.538Z,54.26
2022-10-31T08:35:52.104Z,54.34
2022-10-31T08:38:38.090Z,54.48
2022-10-31T08:41:05.995Z,54.66
2022-10-31T08:43:33.704Z,54.59
2022-10-31T08:46:01.656Z,54.62
2022-10-31T08:48:30.515Z,54.75
2022-10-31T08:50:59.330Z,54.61
2022-10-31T08:53:28.328Z,54.99
2022-10-31T08:56:16.021Z,54.93
2022-10-31T08:58:44.007Z,54.70
2022-10-31T09:01:12.598Z,55.02
2022-10-31T09:03:40.480Z,54.99
2022-10-31T09:06:10.231Z,54.44
2022-10-31T09:08:38.819Z,54.20
2022-10-31T09:11:07.917Z,54.16
2022-10-31T09:14:03.362Z,54.09
2022-10-31T09:16:33.814Z,54.12
2022-10-31T09:19:02.988Z,54.39
2022-10-31T09:21:32.932Z,54.08
2022-10-31T09:24:00.587Z,54.18
2022-10-31T09:26:28.319Z,53.98
2022-10-31T09:29:28.064Z,54.00
2022-10-31T09:31:59.994Z,53.82
2022-10-31T09:34:30.154Z,53.94
2022-10-31T09:37:10.015Z,53.93
2022-10-31T09:39:37.703Z,53.74
2022-10-31T09:43:01.510Z,53.10
2022-10-31T09:45:43.074Z,53.64
2022-10-31T09:48:44.332Z,53.80
2022-10-31T09:51:29.487Z,53.70
2022-10-31T09:54:44.349Z,53.45
2022-10-31T09:57:15.963Z,53.53
2022-10-31T09:59:50.440Z,53.90
2022-10-31T10:02:36.095Z,53.96
2022-10-31T10:05:17.146Z,53.03
2022-10-31T10:07:56.589Z,52.94
2022-10-31T10:11:21.240Z,52.46
2022-10-31T10:14:15.407Z,52.96
2022-10-31T10:17:07.725Z,52.75
2022-10-31T10:20:09.177Z,52.95
2022-10-31T10:22:36.911Z,53.12
2022-10-31T10:25:14.071Z,53.10
2022-10-31T10:28:14.131Z,53.19
2022-10-31T10:30:45.954Z,53.41
2022-10-31T10:33:19.462Z,53.01
2022-10-31T10:35:54.877Z,53.09
2022-10-31T10:38:53.453Z,52.60
2022-10-31T10:41:29.330Z,52.44
2022-10-31T10:43:59.481Z,52.55
2022-10-31T10:47:00.702Z,52.66
2022-10-31T10:49:40.981Z,52.51
2022-10-31T10:52:51.288Z,52.70
2022-10-31T10:55:34.977Z,52.95
2022-10-31T10:58:07.404Z,52.94
2022-10-31T11:00:51.079Z,52.48
2022-10-31T11:03:20.443Z,53.22
2022-10-31T11:05:54.871Z,52.50
2022-10-31T11:08:27.476Z,52.54
2022-10-31T11:11:02.753Z,52.57
2022-10-31T11:13:31.620Z,53.16
2022-10-31T11:16:28.719Z,53.15
2022-10-31T11:19:09.289Z,52.32
2022-10-31T11:21:37.088Z,52.48
2022-10-31T11:24:10.823Z,51.89
2022-10-31T11:26:40.559Z,52.09
2022-10-31T11:29:34.564Z,51.64
2022-10-31T11:32:02.545Z,52.56
2022-10-31T11:34:34.488Z,52.56
2022-10-31T11:37:17.195Z,52.20
2022-10-31T11:39:54.448Z,52.49
2022-10-31T11:42:24.458Z,52.74
2022-10-31T11:44:54.633Z,53.18
2022-10-31T11:47:30.383Z,52.96
2022-10-31T11:49:58.937Z,53.06
2022-10-31T11:52:29.473Z,53.02
2022-10-31T11:55:22.800Z,53.31
2022-10-31T11:57:52.991Z,53.23
2022-10-31T12:00:25.635Z,52.96
2022-10-31T12:03:23.308Z,52.57
2022-10-31T12:05:55.018Z,52.92
2022-10-31T12:08:22.991Z,52.99
2022-10-31T12:10:53.930Z,53.30
2022-10-31T12:13:35.888Z,53.21
2022-10-31T12:16:16.134Z,53.40
2022-10-31T12:18:52.868Z,53.75
2022-10-31T12:21:32.961Z,53.70
2022-10-31T12:24:19.312Z,54.18
2022-10-31T12:27:02.373Z,53.86
2022-10-31T12:29:51.795Z,54.13
2022-10-31T12:32:32.030Z,54.35
2022-10-31T12:35:21.093Z,54.29
2022-10-31T12:38:02.553Z,54.29
2022-10-31T12:41:11.056Z,54.58
2022-10-31T12:43:58.905Z,54.42
2022-10-31T12:46:56.529Z,54.33
2022-10-31T12:50:01.862Z,54.68
2022-10-31T12:52:47.896Z,54.39
2022-10-31T12:55:32.921Z,54.85
2022-10-31T12:58:11.164Z,54.83
2022-10-31T13:00:46.237Z,54.38
2022-10-31T13:03:35.287Z,54.47
2022-10-31T13:06:15.006Z,54.24
2022-10-31T13:09:07.408Z,54.20
2022-10-31T13:11:47.133Z,54.19
2022-10-31T13:14:49.231Z,54.29
2022-10-31T13:17:38.136Z,54.65
2022-10-31T13:20:14.732Z,54.41
2022-10-31T13:22:47.483Z,54.64
2022-10-31T13:25:21.599Z,54.48
2022-10-31T13:28:03.915Z,54.73
2022-10-31T13:30:37.688Z,54.89
2022-10-31T13:33:21.796Z,55.58
2022-10-31T13:35:52.583Z,55.48
2022-10-31T13:38:32.020Z,55.53
2022-10-31T13:41:06.463Z,55.30
2022-10-31T13:44:04.006Z,55.51
2022-10-31T13:46:35.109Z,55.67
2022-10-31T13:49:03.673Z,55.54
2022-10-31T13:51:36.256Z,55.50
2022-10-31T13:54:24.371Z,55.60
2022-10-31T13:56:54.131Z,55.13
2022-10-31T13:59:32.259Z,55.33
2022-10-31T14:02:03.480Z,55.53
2022-10-31T14:04:39.264Z,55.78
2022-10-31T14:07:32.641Z,55.29
2022-10-31T14:10:27.501Z,55.91
2022-10-31T14:13:05.902Z,56.00
2022-10-31T14:15:34.199Z,56.03
2022-10-31T14:18:07.949Z,55.80
2022-10-31T14:20:43.983Z,56.49
2022-10-31T14:23:36.921Z,56.98
2022-10-31T14:26:29.419Z,57.46
2022-10-31T14:29:21.428Z,56.42
2022-10-31T14:31:56.604Z,56.86
2022-10-31T14:34:38.764Z,56.75
2022-10-31T14:37:45.191Z,56.99
2022-10-31T14:40:25.262Z,56.53
2022-10-31T14:43:11.504Z,56.11
2022-10-31T14:46:02.524Z,56.19
2022-10-31T14:48:54.831Z,56.87
2022-10-31T14:51:25.611Z,56.41
2022-10-31T14:53:57.775Z,56.30
2022-10-31T14:56:35.882Z,56.60
2022-10-31T14:59:10.865Z,56.67
2022-10-31T15:01:41.224Z,56.64
2022-10-31T15:04:24.977Z,56.44
2022-10-31T15:07:05.536Z,56.56
2022-10-31T15:09:36.035Z,56.43
2022-10-31T15:12:33.030Z,56.80
2022-10-31T15:15:23.207Z,56.99
2022-10-31T15:17:56.352Z,57.07
2022-10-31T15:20:27.610Z,57.15
2022-10-31T15:22:58.043Z,57.26
2022-10-31T15:25:29.555Z,57.15
2022-10-31T15:27:57.911Z,57.46
2022-10-31T15:30:31.792Z,57.56
2022-10-31T15:32:59.638Z,58.19
2022-10-31T15:35:29.698Z,58.16
2022-10-31T15:38:00.164Z,58.46
2022-10-31T15:40:29.343Z,58.78
2022-10-31T15:43:00.776Z,58.85
2022-10-31T15:45:31.358Z,59.14
2022-10-31T15:48:02.815Z,59.07
2022-10-31T15:50:38.897Z,59.72
2022-10-31T15:53:19.224Z,58.92
2022-10-31T15:56:07.709Z,59.96
2022-10-31T15:58:52.384Z,60.16
2022-10-31T16:01:23.572Z,59.75
2022-10-31T16:04:02.532Z,59.09
2022-10-31T16:06:35.840Z,58.79
2022-10-31T16:09:18.945Z,59.11
2022-10-31T16:11:46.703Z,59.01
2022-10-31T16:14:14.469Z,59.10
2022-10-31T16:16:45.203Z,59.40
2022-10-31T16:19:25.216Z,59.30
2022-10-31T16:21:56.998Z,59.45
2022-10-31T16:24:38.362Z,59.29
2022-10-31T16:27:15.091Z,59.12
2022-10-31T16:29:45.719Z,58.95
2022-10-31T16:33:00.992Z,59.09
2022-10-31T16:35:38.918Z,59.03
2022-10-31T16:38:06.988Z,59.08
2022-10-31T16:40:35.818Z,59.16
2022-10-31T16:43:03.847Z,59.26
2022-10-31T16:45:33.449Z,59.14
2022-10-31T16:48:07.654Z,59.10
2022-10-31T16:50:36.302Z,59.10
2022-10-31T16:53:19.235Z,58.98
2022-10-31T16:55:59.627Z,59.15
2022-10-31T16:58:34.242Z,59.55
2022-10-31T17:01:07.012Z,58.87
2022-10-31T17:03:35.106Z,58.82
2022-10-31T17:06:04.093Z,59.13
2022-10-31T17:08:35.168Z,58.71
2022-10-31T17:11:03.178Z,58.81
2022-10-31T17:13:32.758Z,59.12
2022-10-31T17:16:04.867Z,59.17
2022-10-31T17:18:32.720Z,59.19
2022-10-31T17:21:06.336Z,59.56
2022-10-31T17:23:34.081Z,59.52
2022-10-31T17:26:01.903Z,59.43
2022-10-31T17:28:29.588Z,59.70
2022-10-31T17:30:59.534Z,59.67
2022-10-31T17:33:28.102Z,59.59
2022-10-31T17:35:55.725Z,59.31
2022-10-31T17:38:23.771Z,60.14
2022-10-31T17:40:51.583Z,59.99
2022-10-31T17:43:19.329Z,59.58
2022-10-31T17:45:47.626Z,61.14
2022-10-31T17:48:15.199Z,60.05
2022-10-31T17:50:42.943Z,60.10
2022-10-31T17:53:10.724Z,59.79
2022-10-31T17:55:38.443Z,59.44
2022-10-31T17:58:06.294Z,59.38
2022-10-31T18:00:34.278Z,59.41
2022-10-31T18:03:04.089Z,59.22
2022-10-31T18:05:32.368Z,59.30
2022-10-31T18:08:03.660Z,59.36
2022-10-31T18:10:32.457Z,59.41
2022-10-31T18:13:00.511Z,59.58
2022-10-31T18:15:28.407Z,59.19
2022-10-31T18:17:56.129Z,59.31
2022-10-31T18:20:23.677Z,59.94
2022-10-31T18:22:52.140Z,59.82
2022-10-31T18:25:19.728Z,59.73
2022-10-31T18:27:47.414Z,59.91
2022-10-31T18:30:15.306Z,59.94
2022-10-31T18:32:43.467Z,59.94
2022-10-31T18:35:11.056Z,59.46
2022-10-31T18:37:38.777Z,60.04
2022-10-31T18:40:06.996Z,59.97
2022-10-31T18:42:34.980Z,59.47
2022-10-31T18:45:11.524Z,59.49
2022-10-31T18:47:46.334Z,59.60
2022-10-31T18:50:14.134Z,59.29
2022-10-31T18:52:42.316Z,59.63
2022-10-31T18:55:10.201Z,59.40
2022-10-31T18:57:38.003Z,59.20
2022-10-31T19:00:06.943Z,59.34
2022-10-31T19:02:34.793Z,59.05
2022-10-31T19:05:02.620Z,59.09
2022-10-31T19:07:30.469Z,59.23
2022-10-31T19:09:58.132Z,59.06
2022-10-31T19:12:25.797Z,59.27
2022-10-31T19:14:53.534Z,59.04
2022-10-31T19:17:21.337Z,59.06
2022-10-31T19:19:49.142Z,58.70
2022-10-31T19:22:16.820Z,58.97
2022-10-31T19:24:44.558Z,58.82
2022-10-31T19:27:13.912Z,58.58
2022-10-31T19:29:43.075Z,58.35
2022-10-31T19:32:10.900Z,58.80
2022-10-31T19:34:39.265Z,58.79
2022-10-31T19:37:06.987Z,58.92
2022-10-31T19:39:39.808Z,58.83
2022-10-31T19:42:10.713Z,58.70
2022-10-31T19:44:38.507Z,58.91
2022-10-31T19:47:06.104Z,58.48
2022-10-31T19:49:33.717Z,58.58
2022-10-31T19:52:01.561Z,58.55
2022-10-31T19:54:29.128Z,58.67
2022-10-31T19:56:57.086Z,58.59
2022-10-31T19:59:26.021Z,58.60
2022-10-31T20:01:53.746Z,59.12
2022-10-31T20:04:22.112Z,58.77
2022-10-31T20:06:50.059Z,59.01
2022-10-31T20:09:18.164Z,59.09
2022-10-31T20:11:46.441Z,58.95
2022-10-31T20:14:17.012Z,59.29
2022-10-31T20:16:45.720Z,59.21
2022-10-31T20:19:13.892Z,58.99
2022-10-31T20:21:41.985Z,59.19
2022-10-31T20:24:11.141Z,59.23
2022-10-31T20:26:41.091Z,59.54
2022-10-31T20:29:12.342Z,59.44
2022-10-31T20:31:40.327Z,59.27
2022-10-31T20:34:08.077Z,59.33
2022-10-31T20:36:36.831Z,59.17
2022-10-31T20:39:05.214Z,59.43
2022-10-31T20:41:32.818Z,58.95
2022-10-31T20:44:00.674Z,59.26
2022-10-31T20:46:28.533Z,59.09
2022-10-31T20:48:56.328Z,58.78
2022-10-31T20:51:27.569Z,58.87
2022-10-31T20:53:56.770Z,58.52
2022-10-31T20:56:26.683Z,58.98
2022-10-31T20:58:56.220Z,58.75
2022-10-31T21:01:27.594Z,58.25
2022-10-31T21:03:56.091Z,58.51
2022-10-31T21:06:23.776Z,58.65
2022-10-31T21:08:52.176Z,58.93
2022-10-31T21:11:22.776Z,58.95
2022-10-31T21:13:51.294Z,58.81
2022-10-31T21:16:21.334Z,59.00
2022-10-31T21:18:50.116Z,58.55
2022-10-31T21:21:32.179Z,58.65
2022-10-31T21:24:13.788Z,58.60
2022-10-31T21:26:44.641Z,58.39
2022-10-31T21:29:13.484Z,58.87
2022-10-31T21:31:41.773Z,58.36
2022-10-31T21:34:09.668Z,58.41
2022-10-31T21:36:39.907Z,58.75
2022-10-31T21:39:11.493Z,58.68
2022-10-31T21:41:39.312Z,58.47
2022-10-31T21:44:06.963Z,58.73
2022-10-31T21:46:35.256Z,58.47
2022-10-31T21:49:04.070Z,58.78
2022-10-31T21:51:34.566Z,58.56
2022-10-31T21:54:21.082Z,58.92
2022-10-31T21:56:49.028Z,58.94
2022-10-31T21:59:16.730Z,58.74
2022-10-31T22:01:46.490Z,58.87
2022-10-31T22:04:14.332Z,58.73
2022-10-31T22:06:43.412Z,58.64
2022-10-31T22:09:14.192Z,58.38
2022-10-31T22:11:43.271Z,58.50
2022-10-31T22:14:13.288Z,58.62
2022-10-31T22:16:41.567Z,58.67
2022-10-31T22:19:12.357Z,58.72
2022-10-31T22:21:46.628Z,58.13
2022-10-31T22:24:15.373Z,58.02
2022-10-31T22:26:43.193Z,58.13
2022-10-31T22:29:14.225Z,57.89
2022-10-31T22:31:44.592Z,57.78
2022-10-31T22:34:13.526Z,57.82
2022-10-31T22:36:42.084Z,58.00
2022-10-31T22:39:12.965Z,58.15
2022-10-31T22:41:41.032Z,57.91
2022-10-31T22:44:08.756Z,57.89
2022-10-31T22:46:38.677Z,58.01
2022-10-31T22:49:10.543Z,57.79
2022-10-31T22:51:39.682Z,57.68
2022-10-31T22:54:11.506Z,57.44
2022-10-31T22:56:39.212Z,57.37
2022-10-31T22:59:07.021Z,57.46
2022-10-31T23:01:34.760Z,57.39
2022-10-31T23:04:02.988Z,57.68
2022-10-31T23:06:32.562Z,57.77
2022-10-31T23:09:02.002Z,57.37
2022-10-31T23:11:35.199Z,57.65
2022-10-31T23:14:14.170Z,57.29
2022-10-31T23:16:46.287Z,57.34
2022-10-31T23:19:21.487Z,57.54
2022-10-31T23:21:54.836Z,57.33
2022-10-31T23:24:29.646Z,57.38
2022-10-31T23:27:10.611Z,57.76
2022-10-31T23:29:58.500Z,57.63
2022-10-31T23:32:27.212Z,57.32
2022-10-31T23:35:03.610Z,57.10
2022-10-31T23:37:34.847Z,57.60
2022-10-31T23:40:05.196Z,57.77
2022-10-31T23:42:32.842Z,57.74
2022-10-31T23:45:00.565Z,57.69
2022-10-31T23:47:28.279Z,57.45
2022-10-31T23:49:57.227Z,57.43
2022-10-31T23:52:24.939Z,57.33
2022-10-31T23:54:52.678Z,57.29
2022-10-31T23:57:20.249Z,57.37
2022-10-31T23:59:48.123Z,57.25
